Terminal Aerodrome Forecast
Issued by NWS Huntsville, AL

Home | Current Version | Previous Version | Text Only | Print | Product List | Glossary On
Versions: 1 2 3 4 5 6 7 8 9 10 11 12 13 14 15 16 17
000
FTUS44 KHUN 302320
TAFHSV
TAF
KHSV 302320Z 3100/3124 VRB04KT P6SM FEW050 BKN250
     FM310800 VRB03KT 4SM BR FEW250
      TEMPO 3109/3112 2SM BR BKN025
     FM311200 VRB03KT P6SM SCT030 SCT120
     FM311900 25008KT P6SM SCT050 PROB30 3119/3123 6SM -TSRA
      SCT050CB=

USA.gov is the U.S. government's official web portal to all federal, state and local government web resources and services.